sensor_id;sensor_type;location;lat;lon;timestamp;temperature;humidity
2363;DHT22;64265;51.664;7.626;2024-03-02T00:00:34;21.10;67.70
2363;DHT22;64265;51.664;7.626;2024-03-02T00:03:02;21.10;67.60
2363;DHT22;64265;51.664;7.626;2024-03-02T00:05:29;21.10;67.70
2363;DHT22;64265;51.664;7.626;2024-03-02T00:07:58;21.10;67.70
2363;DHT22;64265;51.664;7.626;2024-03-02T00:10:26;21.20;67.90
2363;DHT22;64265;51.664;7.626;2024-03-02T00:12:55;21.10;67.80
2363;DHT22;64265;51.664;7.626;2024-03-02T00:15:41;21.00;67.60
2363;DHT22;64265;51.664;7.626;2024-03-02T00:18:11;21.00;67.60
2363;DHT22;64265;51.664;7.626;2024-03-02T00:20:39;21.00;67.60
2363;DHT22;64265;51.664;7.626;2024-03-02T00:23:08;20.90;67.80
2363;DHT22;64265;51.664;7.626;2024-03-02T00:25:38;21.10;67.80
2363;DHT22;64265;51.664;7.626;2024-03-02T00:28:05;21.40;68.10
2363;DHT22;64265;51.664;7.626;2024-03-02T00:30:57;21.00;67.70
2363;DHT22;64265;51.664;7.626;2024-03-02T00:33:27;21.00;67.60
2363;DHT22;64265;51.664;7.626;2024-03-02T00:35:54;21.50;68.30
2363;DHT22;64265;51.664;7.626;2024-03-02T00:38:21;20.90;68.50
2363;DHT22;64265;51.664;7.626;2024-03-02T00:40:49;20.80;67.60
2363;DHT22;64265;51.664;7.626;2024-03-02T00:43:43;20.90;67.70
2363;DHT22;64265;51.664;7.626;2024-03-02T00:46:15;21.00;67.70
2363;DHT22;64265;51.664;7.626;2024-03-02T00:48:48;21.00;67.80
2363;DHT22;64265;51.664;7.626;2024-03-02T00:51:17;20.90;67.80
2363;DHT22;64265;51.664;7.626;2024-03-02T00:53:45;20.90;67.70
2363;DHT22;64265;51.664;7.626;2024-03-02T00:56:12;20.80;67.80
2363;DHT22;64265;51.664;7.626;2024-03-02T00:58:40;20.80;67.70
2363;DHT22;64265;51.664;7.626;2024-03-02T01:01:06;20.90;67.90
2363;DHT22;64265;51.664;7.626;2024-03-02T01:03:33;21.00;67.90
2363;DHT22;64265;51.664;7.626;2024-03-02T01:06:01;21.00;68.10
2363;DHT22;64265;51.664;7.626;2024-03-02T01:08:27;20.70;67.60
2363;DHT22;64265;51.664;7.626;2024-03-02T01:10:55;20.90;68.70
2363;DHT22;64265;51.664;7.626;2024-03-02T01:13:22;20.90;68.00
2363;DHT22;64265;51.664;7.626;2024-03-02T01:15:49;20.90;67.90
2363;DHT22;64265;51.664;7.626;2024-03-02T01:18:16;20.90;67.90
2363;DHT22;64265;51.664;7.626;2024-03-02T01:20:43;20.80;67.90
2363;DHT22;64265;51.664;7.626;2024-03-02T01:23:09;20.80;67.80
2363;DHT22;64265;51.664;7.626;2024-03-02T01:25:37;20.90;67.90
2363;DHT22;64265;51.664;7.626;2024-03-02T01:28:05;20.90;67.90
2363;DHT22;64265;51.664;7.626;2024-03-02T01:30:32;20.90;67.90
2363;DHT22;64265;51.664;7.626;2024-03-02T01:32:59;20.90;68.80
2363;DHT22;64265;51.664;7.626;2024-03-02T01:35:25;20.90;67.90
2363;DHT22;64265;51.664;7.626;2024-03-02T01:37:53;21.10;68.20
2363;DHT22;64265;51.664;7.626;2024-03-02T01:40:19;20.80;67.90
2363;DHT22;64265;51.664;7.626;2024-03-02T01:42:46;20.80;67.90
2363;DHT22;64265;51.664;7.626;2024-03-02T01:45:15;20.80;68.00
2363;DHT22;64265;51.664;7.626;2024-03-02T01:47:41;21.00;68.20
2363;DHT22;64265;51.664;7.626;2024-03-02T01:50:08;20.80;68.00
2363;DHT22;64265;51.664;7.626;2024-03-02T01:52:36;20.80;67.90
2363;DHT22;64265;51.664;7.626;2024-03-02T01:55:04;20.60;67.80
2363;DHT22;64265;51.664;7.626;2024-03-02T01:57:31;20.80;67.90
2363;DHT22;64265;51.664;7.626;2024-03-02T01:59:58;20.80;68.10
2363;DHT22;64265;51.664;7.626;2024-03-02T02:02:26;20.80;68.10
2363;DHT22;64265;51.664;7.626;2024-03-02T02:04:53;20.90;68.10
2363;DHT22;64265;51.664;7.626;2024-03-02T02:07:19;20.80;68.10
2363;DHT22;64265;51.664;7.626;2024-03-02T02:09:46;20.70;67.90
2363;DHT22;64265;51.664;7.626;2024-03-02T02:12:13;20.70;67.90
2363;DHT22;64265;51.664;7.626;2024-03-02T02:14:47;20.80;68.10
2363;DHT22;64265;51.664;7.626;2024-03-02T02:17:14;20.60;67.90
2363;DHT22;64265;51.664;7.626;2024-03-02T02:19:42;21.00;68.30
2363;DHT22;64265;51.664;7.626;2024-03-02T02:22:10;20.70;68.00
2363;DHT22;64265;51.664;7.626;2024-03-02T02:24:39;21.00;68.30
2363;DHT22;64265;51.664;7.626;2024-03-02T02:27:06;20.70;68.20
2363;DHT22;64265;51.664;7.626;2024-03-02T02:29:33;20.70;68.00
2363;DHT22;64265;51.664;7.626;2024-03-02T02:32:00;20.70;68.00
2363;DHT22;64265;51.664;7.626;2024-03-02T02:34:27;20.70;68.00
2363;DHT22;64265;51.664;7.626;2024-03-02T02:36:54;20.70;68.10
2363;DHT22;64265;51.664;7.626;2024-03-02T02:39:22;20.70;68.10
2363;DHT22;64265;51.664;7.626;2024-03-02T02:41:49;20.70;68.10
2363;DHT22;64265;51.664;7.626;2024-03-02T02:44:16;20.70;68.20
2363;DHT22;64265;51.664;7.626;2024-03-02T02:46:42;20.50;67.90
2363;DHT22;64265;51.664;7.626;2024-03-02T02:49:09;20.70;68.10
2363;DHT22;64265;51.664;7.626;2024-03-02T02:51:36;20.70;68.10
2363;DHT22;64265;51.664;7.626;2024-03-02T02:54:03;20.80;68.30
2363;DHT22;64265;51.664;7.626;2024-03-02T02:56:31;20.70;68.10
2363;DHT22;64265;51.664;7.626;2024-03-02T02:58:57;20.70;68.10
2363;DHT22;64265;51.664;7.626;2024-03-02T03:01:24;20.60;68.10
2363;DHT22;64265;51.664;7.626;2024-03-02T03:03:51;20.60;68.00
2363;DHT22;64265;51.664;7.626;2024-03-02T03:06:17;20.70;68.20
2363;DHT22;64265;51.664;7.626;2024-03-02T03:08:44;20.80;68.30
2363;DHT22;64265;51.664;7.626;2024-03-02T03:11:11;21.10;68.60
2363;DHT22;64265;51.664;7.626;2024-03-02T03:13:39;20.40;67.90
2363;DHT22;64265;51.664;7.626;2024-03-02T03:16:06;21.10;68.90
2363;DHT22;64265;51.664;7.626;2024-03-02T03:18:32;20.70;68.20
2363;DHT22;64265;51.664;7.626;2024-03-02T03:20:59;20.60;68.20
2363;DHT22;64265;51.664;7.626;2024-03-02T03:23:26;20.60;68.40
2363;DHT22;64265;51.664;7.626;2024-03-02T03:25:52;20.40;68.00
2363;DHT22;64265;51.664;7.626;2024-03-02T03:28:19;21.10;68.70
2363;DHT22;64265;51.664;7.626;2024-03-02T03:30:47;20.60;68.20
2363;DHT22;64265;51.664;7.626;2024-03-02T03:33:14;20.60;68.20
2363;DHT22;64265;51.664;7.626;2024-03-02T03:35:41;20.60;68.30
2363;DHT22;64265;51.664;7.626;2024-03-02T03:38:07;20.60;68.20
2363;DHT22;64265;51.664;7.626;2024-03-02T03:40:34;20.40;67.90
2363;DHT22;64265;51.664;7.626;2024-03-02T03:43:01;20.60;68.20
2363;DHT22;64265;51.664;7.626;2024-03-02T03:45:27;20.60;68.20
2363;DHT22;64265;51.664;7.626;2024-03-02T03:47:57;20.60;68.20
2363;DHT22;64265;51.664;7.626;2024-03-02T03:50:24;20.70;69.20
2363;DHT22;64265;51.664;7.626;2024-03-02T03:52:51;20.50;68.10
2363;DHT22;64265;51.664;7.626;2024-03-02T03:55:17;20.60;68.40
2363;DHT22;64265;51.664;7.626;2024-03-02T03:57:44;20.30;67.90
2363;DHT22;64265;51.664;7.626;2024-03-02T04:00:12;20.60;68.20
2363;DHT22;64265;51.664;7.626;2024-03-02T04:02:38;20.60;68.30
2363;DHT22;64265;51.664;7.626;2024-03-02T04:05:07;20.60;68.40
2363;DHT22;64265;51.664;7.626;2024-03-02T04:07:36;20.50;68.10
2363;DHT22;64265;51.664;7.626;2024-03-02T04:10:08;20.40;68.00
2363;DHT22;64265;51.664;7.626;2024-03-02T04:12:36;20.60;68.40
2363;DHT22;64265;51.664;7.626;2024-03-02T04:15:04;20.50;68.10
2363;DHT22;64265;51.664;7.626;2024-03-02T04:17:32;20.60;68.20
2363;DHT22;64265;51.664;7.626;2024-03-02T04:19:59;21.10;68.90
2363;DHT22;64265;51.664;7.626;2024-03-02T04:22:27;20.60;68.50
2363;DHT22;64265;51.664;7.626;2024-03-02T04:24:54;20.50;68.10
2363;DHT22;64265;51.664;7.626;2024-03-02T04:27:21;20.60;68.30
2363;DHT22;64265;51.664;7.626;2024-03-02T04:29:47;20.70;68.50
2363;DHT22;64265;51.664;7.626;2024-03-02T04:32:14;20.50;68.20
2363;DHT22;64265;51.664;7.626;2024-03-02T04:34:41;20.60;68.40
2363;DHT22;64265;51.664;7.626;2024-03-02T04:37:08;21.00;68.90
2363;DHT22;64265;51.664;7.626;2024-03-02T04:39:36;20.50;68.40
2363;DHT22;64265;51.664;7.626;2024-03-02T04:42:02;20.50;68.40
2363;DHT22;64265;51.664;7.626;2024-03-02T04:44:29;20.50;68.30
2363;DHT22;64265;51.664;7.626;2024-03-02T04:46:56;20.50;68.40
2363;DHT22;64265;51.664;7.626;2024-03-02T04:49:23;20.50;68.30
2363;DHT22;64265;51.664;7.626;2024-03-02T04:51:50;20.50;68.30
2363;DHT22;64265;51.664;7.626;2024-03-02T04:54:17;20.30;68.10
2363;DHT22;64265;51.664;7.626;2024-03-02T04:56:45;20.50;68.20
2363;DHT22;64265;51.664;7.626;2024-03-02T04:59:15;20.50;68.20
2363;DHT22;64265;51.664;7.626;2024-03-02T05:01:41;20.50;68.40
2363;DHT22;64265;51.664;7.626;2024-03-02T05:04:08;21.00;68.90
2363;DHT22;64265;51.664;7.626;2024-03-02T05:06:37;20.50;69.00
2363;DHT22;64265;51.664;7.626;2024-03-02T05:09:03;20.40;68.10
2363;DHT22;64265;51.664;7.626;2024-03-02T05:11:30;20.30;68.10
2363;DHT22;64265;51.664;7.626;2024-03-02T05:14:29;21.00;68.80
2363;DHT22;64265;51.664;7.626;2024-03-02T05:16:56;20.20;68.10
2363;DHT22;64265;51.664;7.626;2024-03-02T05:19:23;20.50;68.30
2363;DHT22;64265;51.664;7.626;2024-03-02T05:21:50;20.50;68.40
2363;DHT22;64265;51.664;7.626;2024-03-02T05:24:17;20.50;68.40
2363;DHT22;64265;51.664;7.626;2024-03-02T05:26:44;20.60;68.50
2363;DHT22;64265;51.664;7.626;2024-03-02T05:29:11;20.80;68.70
2363;DHT22;64265;51.664;7.626;2024-03-02T05:31:39;20.50;68.40
2363;DHT22;64265;51.664;7.626;2024-03-02T05:34:06;20.70;68.70
2363;DHT22;64265;51.664;7.626;2024-03-02T05:36:32;20.40;68.30
2363;DHT22;64265;51.664;7.626;2024-03-02T05:38:59;20.40;68.20
2363;DHT22;64265;51.664;7.626;2024-03-02T05:41:26;20.40;68.20
2363;DHT22;64265;51.664;7.626;2024-03-02T05:43:52;20.80;68.80
2363;DHT22;64265;51.664;7.626;2024-03-02T05:46:19;20.40;68.30
2363;DHT22;64265;51.664;7.626;2024-03-02T05:48:47;20.80;68.80
2363;DHT22;64265;51.664;7.626;2024-03-02T05:51:14;20.40;68.30
2363;DHT22;64265;51.664;7.626;2024-03-02T05:53:40;20.40;68.40
2363;DHT22;64265;51.664;7.626;2024-03-02T05:56:08;20.10;68.10
2363;DHT22;64265;51.664;7.626;2024-03-02T05:58:35;20.40;68.20
2363;DHT22;64265;51.664;7.626;2024-03-02T06:01:15;20.30;68.20
2363;DHT22;64265;51.664;7.626;2024-03-02T06:03:42;20.40;68.40
2363;DHT22;64265;51.664;7.626;2024-03-02T06:06:10;20.20;68.10
2363;DHT22;64265;51.664;7.626;2024-03-02T06:08:38;20.40;68.40
2363;DHT22;64265;51.664;7.626;2024-03-02T06:11:04;20.40;68.40
2363;DHT22;64265;51.664;7.626;2024-03-02T06:13:31;20.50;68.60
2363;DHT22;64265;51.664;7.626;2024-03-02T06:15:58;20.40;68.40
2363;DHT22;64265;51.664;7.626;2024-03-02T06:18:24;20.40;68.50
2363;DHT22;64265;51.664;7.626;2024-03-02T06:20:51;20.40;68.30
2363;DHT22;64265;51.664;7.626;2024-03-02T06:23:19;20.70;68.90
2363;DHT22;64265;51.664;7.626;2024-03-02T06:25:46;20.20;68.20
2363;DHT22;64265;51.664;7.626;2024-03-02T06:28:12;20.30;68.50
2363;DHT22;64265;51.664;7.626;2024-03-02T06:30:40;20.40;68.70
2363;DHT22;64265;51.664;7.626;2024-03-02T06:33:07;20.40;68.80
2363;DHT22;64265;51.664;7.626;2024-03-02T06:35:34;20.90;69.50
2363;DHT22;64265;51.664;7.626;2024-03-02T06:38:01;20.50;69.30
2363;DHT22;64265;51.664;7.626;2024-03-02T06:40:29;20.60;69.60
2363;DHT22;64265;51.664;7.626;2024-03-02T06:42:56;20.30;69.20
2363;DHT22;64265;51.664;7.626;2024-03-02T06:45:23;20.60;69.70
2363;DHT22;64265;51.664;7.626;2024-03-02T06:47:50;20.50;69.60
2363;DHT22;64265;51.664;7.626;2024-03-02T06:50:16;20.50;69.80
2363;DHT22;64265;51.664;7.626;2024-03-02T06:52:43;20.40;69.70
2363;DHT22;64265;51.664;7.626;2024-03-02T06:55:10;20.60;70.00
2363;DHT22;64265;51.664;7.626;2024-03-02T06:57:38;20.70;70.10
2363;DHT22;64265;51.664;7.626;2024-03-02T07:00:05;20.70;71.00
2363;DHT22;64265;51.664;7.626;2024-03-02T07:02:34;20.60;70.10
2363;DHT22;64265;51.664;7.626;2024-03-02T07:05:01;20.60;70.40
2363;DHT22;64265;51.664;7.626;2024-03-02T07:07:28;20.60;70.30
2363;DHT22;64265;51.664;7.626;2024-03-02T07:09:54;20.40;70.20
2363;DHT22;64265;51.664;7.626;2024-03-02T07:12:21;20.70;70.40
2363;DHT22;64265;51.664;7.626;2024-03-02T07:14:49;20.70;70.40
2363;DHT22;64265;51.664;7.626;2024-03-02T07:17:37;20.70;70.30
2363;DHT22;64265;51.664;7.626;2024-03-02T07:20:04;20.70;70.30
2363;DHT22;64265;51.664;7.626;2024-03-02T07:22:32;20.70;70.10
2363;DHT22;64265;51.664;7.626;2024-03-02T07:24:59;21.00;70.80
2363;DHT22;64265;51.664;7.626;2024-03-02T07:27:25;20.80;70.70
2363;DHT22;64265;51.664;7.626;2024-03-02T07:29:53;20.60;70.40
2363;DHT22;64265;51.664;7.626;2024-03-02T07:32:21;20.80;70.50
2363;DHT22;64265;51.664;7.626;2024-03-02T07:34:47;21.10;70.90
2363;DHT22;64265;51.664;7.626;2024-03-02T07:37:16;20.80;70.50
2363;DHT22;64265;51.664;7.626;2024-03-02T07:39:44;20.80;70.30
2363;DHT22;64265;51.664;7.626;2024-03-02T07:42:11;20.60;70.00
2363;DHT22;64265;51.664;7.626;2024-03-02T07:44:37;20.70;70.00
2363;DHT22;64265;51.664;7.626;2024-03-02T07:47:06;20.90;70.10
2363;DHT22;64265;51.664;7.626;2024-03-02T07:49:33;21.20;70.30
2363;DHT22;64265;51.664;7.626;2024-03-02T07:52:00;20.80;69.70
2363;DHT22;64265;51.664;7.626;2024-03-02T07:54:27;21.10;70.00
2363;DHT22;64265;51.664;7.626;2024-03-02T07:56:53;21.10;69.90
2363;DHT22;64265;51.664;7.626;2024-03-02T07:59:20;21.10;69.70
2363;DHT22;64265;51.664;7.626;2024-03-02T08:01:49;21.00;69.50
2363;DHT22;64265;51.664;7.626;2024-03-02T08:04:17;21.30;69.80
2363;DHT22;64265;51.664;7.626;2024-03-02T08:06:45;20.90;69.60
2363;DHT22;64265;51.664;7.626;2024-03-02T08:09:12;21.20;69.60
2363;DHT22;64265;51.664;7.626;2024-03-02T08:11:39;21.20;69.60
2363;DHT22;64265;51.664;7.626;2024-03-02T08:14:06;21.30;69.60
2363;DHT22;64265;51.664;7.626;2024-03-02T08:16:32;20.90;69.00
2363;DHT22;64265;51.664;7.626;2024-03-02T08:18:59;21.20;69.30
2363;DHT22;64265;51.664;7.626;2024-03-02T08:21:27;21.30;69.50
2363;DHT22;64265;51.664;7.626;2024-03-02T08:23:56;21.30;69.30
2363;DHT22;64265;51.664;7.626;2024-03-02T08:26:23;21.40;69.30
2363;DHT22;64265;51.664;7.626;2024-03-02T08:28:49;21.30;69.10
2363;DHT22;64265;51.664;7.626;2024-03-02T08:31:16;21.00;68.70
2363;DHT22;64265;51.664;7.626;2024-03-02T08:33:43;21.30;69.10
2363;DHT22;64265;51.664;7.626;2024-03-02T08:36:09;21.10;68.90
2363;DHT22;64265;51.664;7.626;2024-03-02T08:38:38;21.80;69.50
2363;DHT22;64265;51.664;7.626;2024-03-02T08:41:04;21.20;68.70
2363;DHT22;64265;51.664;7.626;2024-03-02T08:43:31;21.20;68.70
2363;DHT22;64265;51.664;7.626;2024-03-02T08:45:58;21.30;68.90
2363;DHT22;64265;51.664;7.626;2024-03-02T08:48:25;21.30;68.90
2363;DHT22;64265;51.664;7.626;2024-03-02T08:50:51;21.30;68.70
2363;DHT22;64265;51.664;7.626;2024-03-02T08:53:18;21.20;68.70
2363;DHT22;64265;51.664;7.626;2024-03-02T08:55:46;21.30;68.70
2363;DHT22;64265;51.664;7.626;2024-03-02T08:58:13;21.20;68.50
2363;DHT22;64265;51.664;7.626;2024-03-02T09:00:40;21.30;68.60
2363;DHT22;64265;51.664;7.626;2024-03-02T09:03:07;21.40;68.60
2363;DHT22;64265;51.664;7.626;2024-03-02T09:05:34;21.30;68.60
2363;DHT22;64265;51.664;7.626;2024-03-02T09:08:01;21.30;68.50
2363;DHT22;64265;51.664;7.626;2024-03-02T09:10:29;21.60;68.90
2363;DHT22;64265;51.664;7.626;2024-03-02T09:12:57;21.30;68.60
2363;DHT22;64265;51.664;7.626;2024-03-02T09:15:24;21.20;68.40
2363;DHT22;64265;51.664;7.626;2024-03-02T09:17:51;21.30;68.50
2363;DHT22;64265;51.664;7.626;2024-03-02T09:20:17;21.80;69.00
2363;DHT22;64265;51.664;7.626;2024-03-02T09:22:44;21.50;68.90
2363;DHT22;64265;51.664;7.626;2024-03-02T09:25:12;21.40;68.50
2363;DHT22;64265;51.664;7.626;2024-03-02T09:27:39;21.10;68.20
2363;DHT22;64265;51.664;7.626;2024-03-02T09:30:10;21.30;68.50
2363;DHT22;64265;51.664;7.626;2024-03-02T09:32:37;21.30;68.50
2363;DHT22;64265;51.664;7.626;2024-03-02T09:35:04;21.60;69.00
2363;DHT22;64265;51.664;7.626;2024-03-02T09:37:31;21.40;68.50
2363;DHT22;64265;51.664;7.626;2024-03-02T09:39:58;21.30;69.20
2363;DHT22;64265;51.664;7.626;2024-03-02T09:42:24;21.30;68.90
2363;DHT22;64265;51.664;7.626;2024-03-02T09:44:52;20.90;68.00
2363;DHT22;64265;51.664;7.626;2024-03-02T09:47:20;21.40;68.60
2363;DHT22;64265;51.664;7.626;2024-03-02T09:49:47;21.60;68.80
2363;DHT22;64265;51.664;7.626;2024-03-02T09:52:13;21.40;68.50
2363;DHT22;64265;51.664;7.626;2024-03-02T09:54:41;21.80;68.90
2363;DHT22;64265;51.664;7.626;2024-03-02T09:57:08;21.30;68.40
2363;DHT22;64265;51.664;7.626;2024-03-02T09:59:36;21.30;68.40
2363;DHT22;64265;51.664;7.626;2024-03-02T10:02:03;21.30;68.40
2363;DHT22;64265;51.664;7.626;2024-03-02T10:04:33;21.30;68.30
2363;DHT22;64265;51.664;7.626;2024-03-02T10:07:11;21.10;68.10
2363;DHT22;64265;51.664;7.626;2024-03-02T10:09:38;21.40;68.70
2363;DHT22;64265;51.664;7.626;2024-03-02T10:12:06;21.20;67.50
2363;DHT22;64265;51.664;7.626;2024-03-02T10:14:34;21.30;68.00
2363;DHT22;64265;51.664;7.626;2024-03-02T10:17:05;21.30;68.40
2363;DHT22;64265;51.664;7.626;2024-03-02T10:19:33;21.40;68.60
2363;DHT22;64265;51.664;7.626;2024-03-02T10:22:01;21.40;68.70
2363;DHT22;64265;51.664;7.626;2024-03-02T10:24:35;21.20;68.60
2363;DHT22;64265;51.664;7.626;2024-03-02T10:27:07;21.50;69.00
2363;DHT22;64265;51.664;7.626;2024-03-02T10:29:36;21.40;68.90
2363;DHT22;64265;51.664;7.626;2024-03-02T10:32:04;21.40;69.00
2363;DHT22;64265;51.664;7.626;2024-03-02T10:34:33;21.40;69.00
2363;DHT22;64265;51.664;7.626;2024-03-02T10:37:00;21.50;69.20
2363;DHT22;64265;51.664;7.626;2024-03-02T10:39:28;21.50;69.30
2363;DHT22;64265;51.664;7.626;2024-03-02T10:41:55;21.60;69.40
2363;DHT22;64265;51.664;7.626;2024-03-02T10:44:23;21.30;69.10
2363;DHT22;64265;51.664;7.626;2024-03-02T10:46:50;21.50;69.30
2363;DHT22;64265;51.664;7.626;2024-03-02T10:49:17;21.60;69.50
2363;DHT22;64265;51.664;7.626;2024-03-02T10:51:45;21.60;69.50
2363;DHT22;64265;51.664;7.626;2024-03-02T10:54:12;21.70;69.60
2363;DHT22;64265;51.664;7.626;2024-03-02T10:56:40;21.60;69.50
2363;DHT22;64265;51.664;7.626;2024-03-02T10:59:16;21.40;69.20
2363;DHT22;64265;51.664;7.626;2024-03-02T11:01:47;22.00;69.80
2363;DHT22;64265;51.664;7.626;2024-03-02T11:04:16;21.60;69.50
2363;DHT22;64265;51.664;7.626;2024-03-02T11:06:49;21.30;69.00
2363;DHT22;64265;51.664;7.626;2024-03-02T11:09:19;21.60;69.50
2363;DHT22;64265;51.664;7.626;2024-03-02T11:11:52;21.70;69.50
2363;DHT22;64265;51.664;7.626;2024-03-02T11:14:24;21.70;69.50
2363;DHT22;64265;51.664;7.626;2024-03-02T11:16:51;21.70;69.50
2363;DHT22;64265;51.664;7.626;2024-03-02T11:19:19;21.70;69.60
2363;DHT22;64265;51.664;7.626;2024-03-02T11:21:47;21.70;69.50
2363;DHT22;64265;51.664;7.626;2024-03-02T11:24:31;21.70;69.60
2363;DHT22;64265;51.664;7.626;2024-03-02T11:26:59;21.70;69.50
2363;DHT22;64265;51.664;7.626;2024-03-02T11:29:45;22.20;70.20
2363;DHT22;64265;51.664;7.626;2024-03-02T11:32:20;21.90;69.60
2363;DHT22;64265;51.664;7.626;2024-03-02T11:34:49;22.30;70.10
2363;DHT22;64265;51.664;7.626;2024-03-02T11:37:19;21.90;69.60
2363;DHT22;64265;51.664;7.626;2024-03-02T11:39:48;21.90;69.60
2363;DHT22;64265;51.664;7.626;2024-03-02T11:42:15;21.70;69.30
2363;DHT22;64265;51.664;7.626;2024-03-02T11:44:44;21.90;69.50
2363;DHT22;64265;51.664;7.626;2024-03-02T11:47:13;22.10;69.90
2363;DHT22;64265;51.664;7.626;2024-03-02T11:49:41;22.40;70.10
2363;DHT22;64265;51.664;7.626;2024-03-02T11:52:09;22.00;69.60
2363;DHT22;64265;51.664;7.626;2024-03-02T11:54:39;21.90;69.50
2363;DHT22;64265;51.664;7.626;2024-03-02T11:57:06;22.00;69.00
2363;DHT22;64265;51.664;7.626;2024-03-02T11:59:33;21.80;69.30
2363;DHT22;64265;51.664;7.626;2024-03-02T12:02:00;22.00;69.20
2363;DHT22;64265;51.664;7.626;2024-03-02T12:04:29;21.80;68.90
2363;DHT22;64265;51.664;7.626;2024-03-02T12:06:57;22.00;69.20
2363;DHT22;64265;51.664;7.626;2024-03-02T12:09:26;21.80;68.80
2363;DHT22;64265;51.664;7.626;2024-03-02T12:12:08;22.00;69.10
2363;DHT22;64265;51.664;7.626;2024-03-02T12:14:36;22.00;69.00
2363;DHT22;64265;51.664;7.626;2024-03-02T12:17:04;22.30;69.50
2363;DHT22;64265;51.664;7.626;2024-03-02T12:19:31;22.00;69.00
2363;DHT22;64265;51.664;7.626;2024-03-02T12:21:59;22.00;69.00
2363;DHT22;64265;51.664;7.626;2024-03-02T12:24:27;22.60;69.60
2363;DHT22;64265;51.664;7.626;2024-03-02T12:26:54;22.00;69.00
2363;DHT22;64265;51.664;7.626;2024-03-02T12:29:23;22.10;69.10
2363;DHT22;64265;51.664;7.626;2024-03-02T12:31:51;22.10;69.10
2363;DHT22;64265;51.664;7.626;2024-03-02T12:34:19;22.10;69.00
2363;DHT22;64265;51.664;7.626;2024-03-02T12:36:46;22.10;69.10
2363;DHT22;64265;51.664;7.626;2024-03-02T12:39:15;22.10;69.00
2363;DHT22;64265;51.664;7.626;2024-03-02T12:41:42;22.50;69.50
2363;DHT22;64265;51.664;7.626;2024-03-02T12:44:08;22.00;68.80
2363;DHT22;64265;51.664;7.626;2024-03-02T12:46:37;22.10;69.00
2363;DHT22;64265;51.664;7.626;2024-03-02T12:49:08;22.20;69.00
2363;DHT22;64265;51.664;7.626;2024-03-02T12:51:37;22.20;69.00
2363;DHT22;64265;51.664;7.626;2024-03-02T12:54:06;22.30;69.90
2363;DHT22;64265;51.664;7.626;2024-03-02T12:56:33;22.00;68.80
2363;DHT22;64265;51.664;7.626;2024-03-02T12:59:00;22.10;68.80
2363;DHT22;64265;51.664;7.626;2024-03-02T13:01:27;22.20;69.00
2363;DHT22;64265;51.664;7.626;2024-03-02T13:03:55;22.20;69.00
2363;DHT22;64265;51.664;7.626;2024-03-02T13:06:23;22.20;69.10
2363;DHT22;64265;51.664;7.626;2024-03-02T13:08:50;22.20;68.90
2363;DHT22;64265;51.664;7.626;2024-03-02T13:11:17;22.20;68.90
2363;DHT22;64265;51.664;7.626;2024-03-02T13:13:45;22.20;69.00
2363;DHT22;64265;51.664;7.626;2024-03-02T13:16:12;22.10;68.70
2363;DHT22;64265;51.664;7.626;2024-03-02T13:18:41;22.20;68.60
2363;DHT22;64265;51.664;7.626;2024-03-02T13:21:09;22.20;68.70
2363;DHT22;64265;51.664;7.626;2024-03-02T13:23:36;22.20;68.70
2363;DHT22;64265;51.664;7.626;2024-03-02T13:26:02;22.40;69.00
2363;DHT22;64265;51.664;7.626;2024-03-02T13:28:30;22.20;68.90
2363;DHT22;64265;51.664;7.626;2024-03-02T13:30:56;22.20;68.90
2363;DHT22;64265;51.664;7.626;2024-03-02T13:33:23;22.00;68.40
2363;DHT22;64265;51.664;7.626;2024-03-02T13:35:50;22.30;68.70
2363;DHT22;64265;51.664;7.626;2024-03-02T13:38:19;22.40;69.00
2363;DHT22;64265;51.664;7.626;2024-03-02T13:40:46;22.10;68.40
2363;DHT22;64265;51.664;7.626;2024-03-02T13:43:16;22.10;68.00
2363;DHT22;64265;51.664;7.626;2024-03-02T13:45:43;22.30;67.20
2363;DHT22;64265;51.664;7.626;2024-03-02T13:48:10;22.20;66.60
2363;DHT22;64265;51.664;7.626;2024-03-02T13:50:37;22.10;65.30
2363;DHT22;64265;51.664;7.626;2024-03-02T13:53:04;22.10;63.90
2363;DHT22;64265;51.664;7.626;2024-03-02T13:55:33;22.00;64.50
2363;DHT22;64265;51.664;7.626;2024-03-02T13:58:00;22.00;63.80
2363;DHT22;64265;51.664;7.626;2024-03-02T14:00:27;21.80;62.70
2363;DHT22;64265;51.664;7.626;2024-03-02T14:02:54;22.00;61.80
2363;DHT22;64265;51.664;7.626;2024-03-02T14:05:21;21.80;60.80
2363;DHT22;64265;51.664;7.626;2024-03-02T14:07:48;21.80;60.60
2363;DHT22;64265;51.664;7.626;2024-03-02T14:10:15;21.70;59.90
2363;DHT22;64265;51.664;7.626;2024-03-02T14:12:43;21.60;61.20
2363;DHT22;64265;51.664;7.626;2024-03-02T14:15:10;21.80;60.80
2363;DHT22;64265;51.664;7.626;2024-03-02T14:17:36;21.90;61.40
2363;DHT22;64265;51.664;7.626;2024-03-02T14:20:04;21.90;62.00
2363;DHT22;64265;51.664;7.626;2024-03-02T14:22:31;22.00;62.50
2363;DHT22;64265;51.664;7.626;2024-03-02T14:24:59;22.30;63.30
2363;DHT22;64265;51.664;7.626;2024-03-02T14:27:26;22.00;63.00
2363;DHT22;64265;51.664;7.626;2024-03-02T14:29:54;22.00;63.10
2363;DHT22;64265;51.664;7.626;2024-03-02T14:32:20;22.20;63.90
2363;DHT22;64265;51.664;7.626;2024-03-02T14:34:47;22.10;63.90
2363;DHT22;64265;51.664;7.626;2024-03-02T14:37:14;22.20;64.00
2363;DHT22;64265;51.664;7.626;2024-03-02T14:39:41;22.00;63.90
2363;DHT22;64265;51.664;7.626;2024-03-02T14:42:08;22.70;64.80
2363;DHT22;64265;51.664;7.626;2024-03-02T14:44:35;22.30;64.60
2363;DHT22;64265;51.664;7.626;2024-03-02T14:47:03;22.20;64.60
2363;DHT22;64265;51.664;7.626;2024-03-02T14:49:30;22.30;64.60
2363;DHT22;64265;51.664;7.626;2024-03-02T14:51:59;22.30;64.70
2363;DHT22;64265;51.664;7.626;2024-03-02T14:54:25;22.30;64.80
2363;DHT22;64265;51.664;7.626;2024-03-02T14:56:52;22.30;64.80
2363;DHT22;64265;51.664;7.626;2024-03-02T14:59:19;22.20;64.90
2363;DHT22;64265;51.664;7.626;2024-03-02T15:01:45;22.90;65.70
2363;DHT22;64265;51.664;7.626;2024-03-02T15:04:15;22.30;65.20
2363;DHT22;64265;51.664;7.626;2024-03-02T15:06:44;22.80;65.90
2363;DHT22;64265;51.664;7.626;2024-03-02T15:09:11;22.40;65.40
2363;DHT22;64265;51.664;7.626;2024-03-02T15:11:38;22.30;65.40
2363;DHT22;64265;51.664;7.626;2024-03-02T15:14:04;22.40;65.60
2363;DHT22;64265;51.664;7.626;2024-03-02T15:16:31;22.40;65.60
2363;DHT22;64265;51.664;7.626;2024-03-02T15:18:58;22.30;65.60
2363;DHT22;64265;51.664;7.626;2024-03-02T15:21:26;22.40;65.90
2363;DHT22;64265;51.664;7.626;2024-03-02T15:23:53;22.30;65.70
2363;DHT22;64265;51.664;7.626;2024-03-02T15:26:19;22.20;65.70
2363;DHT22;64265;51.664;7.626;2024-03-02T15:28:46;22.40;65.90
2363;DHT22;64265;51.664;7.626;2024-03-02T15:31:13;22.40;65.90
2363;DHT22;64265;51.664;7.626;2024-03-02T15:33:40;22.20;65.70
2363;DHT22;64265;51.664;7.626;2024-03-02T15:36:07;22.40;66.10
2363;DHT22;64265;51.664;7.626;2024-03-02T15:38:35;22.40;66.10
2363;DHT22;64265;51.664;7.626;2024-03-02T15:41:03;22.30;66.00
2363;DHT22;64265;51.664;7.626;2024-03-02T15:43:30;22.40;66.10
2363;DHT22;64265;51.664;7.626;2024-03-02T15:45:57;22.40;66.20
2363;DHT22;64265;51.664;7.626;2024-03-02T15:48:24;22.50;66.40